Time;durP1;ratioP1;P1;durP2;ratioP2;P2;SDS_P1;SDS_P2;PMS_P1;PMS_P2;Temp;Humidity;BMP_temperature;BMP_pressure;BME280_temperature;BME280_humidity;BME280_pressure;Samples;Min_cycle;Max_cycle;Signal;HPM_P1;HPM_P2
2022/01/02 00:01:34;;;;;;;1.27;0.82;;;;;;;17.11;36.49;98404.31;5054820;28;20032;-69
2022/01/02 00:04:02;;;;;;;2.03;0.85;;;;;;;17.11;36.87;98415.00;5064133;28;20028;-67
2022/01/02 00:06:33;;;;;;;1.10;0.95;;;;;;;17.12;36.18;98427.38;5073360;28;20044;-67
2022/01/02 00:09:06;;;;;;;;;;;;;;;17.03;36.62;98427.47;5073099;28;20052;-67
2022/01/02 00:11:32;;;;;;;1.10;1.00;;;;;;;17.03;36.88;98434.66;5071972;28;20410;-65
2022/01/02 00:14:06;;;;;;;1.75;1.00;;;;;;;17.05;36.58;98444.16;5066204;28;20039;-68
2022/01/02 00:16:37;;;;;;;1.42;0.85;;;;;;;17.05;37.39;98449.50;5072524;28;20091;-67
2022/01/02 00:19:17;;;;;;;1.15;0.90;;;;;;;17.03;37.66;98445.38;5073242;28;20041;-67
2022/01/02 00:21:45;;;;;;;1.35;0.90;;;;;;;17.01;37.33;98440.19;5054598;28;20041;-68
2022/01/02 00:24:16;;;;;;;1.25;0.85;;;;;;;17.01;37.43;98426.81;5079288;28;20364;-68
2022/01/02 00:26:45;;;;;;;1.30;0.82;;;;;;;17.02;37.73;98427.66;5055051;28;20181;-67
2022/01/02 00:29:12;;;;;;;1.27;0.75;;;;;;;17.00;36.62;98433.19;5056444;28;20036;-68
2022/01/02 00:31:41;;;;;;;1.35;0.90;;;;;;;16.98;37.47;98432.56;5072437;28;20530;-67
2022/01/02 00:34:08;;;;;;;0.70;0.63;;;;;;;16.98;37.50;98429.91;5071553;28;20036;-66
2022/01/02 00:36:34;;;;;;;0.70;0.70;;;;;;;16.99;37.58;98438.72;5063468;28;20040;-67
2022/01/02 00:39:00;;;;;;;0.90;0.75;;;;;;;17.02;38.25;98435.69;5054894;28;20036;-67
2022/01/02 00:41:33;;;;;;;1.60;0.90;;;;;;;17.03;38.41;98456.06;5072649;28;20398;-67
2022/01/02 00:44:11;;;;;;;0.88;0.77;;;;;;;17.05;38.40;98462.03;5071968;28;20488;-67
2022/01/02 00:46:47;;;;;;;1.50;0.80;;;;;;;17.06;38.94;98452.97;5058102;28;20047;-67
2022/01/02 00:49:17;;;;;;;3.10;1.17;;;;;;;17.08;39.24;98470.50;5073273;28;20036;-68
2022/01/02 00:51:51;;;;;;;1.58;1.00;;;;;;;17.10;39.13;98472.97;5072629;28;20119;-66
2022/01/02 00:54:18;;;;;;;1.67;0.98;;;;;;;17.12;39.04;98468.25;5072598;28;20039;-68
2022/01/02 00:56:46;;;;;;;1.83;0.85;;;;;;;17.12;39.02;98467.44;5062906;28;20037;-66
2022/01/02 00:59:34;;;;;;;3.42;0.90;;;;;;;17.12;39.56;98451.41;5072376;28;20128;-67
2022/01/02 01:02:03;;;;;;;1.42;1.25;;;;;;;17.12;39.55;98460.25;5072657;28;20044;-67
2022/01/02 01:04:33;;;;;;;2.22;1.20;;;;;;;17.15;39.34;98472.41;5072766;28;20021;-68
2022/01/02 01:07:05;;;;;;;1.67;1.00;;;;;;;17.14;38.59;98468.91;5063629;28;20041;-67
2022/01/02 01:09:32;;;;;;;3.05;0.93;;;;;;;17.13;38.55;98472.59;5069372;28;20650;-67
2022/01/02 01:12:02;;;;;;;2.20;1.13;;;;;;;17.17;38.73;98481.06;5065073;28;20114;-70
2022/01/02 01:14:29;;;;;;;1.30;1.00;;;;;;;17.15;38.87;98467.03;5064199;28;20523;-69
2022/01/02 01:16:56;;;;;;;1.75;1.00;;;;;;;17.17;38.84;98473.03;5052456;28;20060;-67
2022/01/02 01:19:22;;;;;;;1.15;0.85;;;;;;;17.19;38.90;98484.38;5053996;28;20385;-66
2022/01/02 01:21:49;;;;;;;1.40;1.02;;;;;;;17.16;39.23;98482.91;5070202;28;20091;-68
2022/01/02 01:24:14;;;;;;;3.67;1.10;;;;;;;17.16;39.29;98487.41;5062202;28;20364;-69
2022/01/02 01:26:40;;;;;;;1.83;1.08;;;;;;;17.15;39.76;98486.59;5067118;28;20040;-67
2022/01/02 01:29:07;;;;;;;3.65;0.93;;;;;;;17.18;39.34;98490.72;5070080;28;20037;-68
2022/01/02 01:31:32;;;;;;;1.10;0.95;;;;;;;17.17;38.96;98497.94;5070771;28;20067;-68
2022/01/02 01:33:57;;;;;;;1.90;0.90;;;;;;;17.18;38.26;98504.94;5062055;28;20029;-68
2022/01/02 01:36:23;;;;;;;1.80;0.90;;;;;;;17.21;38.80;98498.38;5072385;28;20047;-66
2022/01/02 01:38:48;;;;;;;1.90;0.60;;;;;;;17.23;39.11;98515.88;5072538;28;20063;-68
2022/01/02 01:41:29;;;;;;;1.23;0.80;;;;;;;17.23;38.99;98510.53;5072289;28;20048;-67
2022/01/02 01:44:08;;;;;;;3.20;1.05;;;;;;;17.24;38.60;98511.38;5072454;28;20442;-66
2022/01/02 01:46:35;;;;;;;1.25;0.77;;;;;;;17.24;38.62;98511.38;5067998;28;20194;-65
2022/01/02 01:49:12;;;;;;;1.58;1.10;;;;;;;17.24;38.35;98514.84;5065153;28;20032;-67
2022/01/02 01:51:37;;;;;;;3.20;0.85;;;;;;;17.30;38.34;98505.25;5071855;28;20086;-66
2022/01/02 01:54:03;;;;;;;2.88;1.13;;;;;;;17.46;38.42;98508.69;5072766;28;20036;-66
2022/01/02 01:56:29;;;;;;;1.17;0.75;;;;;;;17.60;37.24;98515.00;5072259;28;20043;-66
2022/01/02 01:58:54;;;;;;;0.93;0.80;;;;;;;17.67;37.23;98508.69;5071655;28;20055;-66
2022/01/02 02:01:20;;;;;;;1.20;1.00;;;;;;;17.76;36.87;98505.88;5071620;28;20032;-66
2022/01/02 02:03:45;;;;;;;1.48;0.70;;;;;;;17.82;36.37;98497.09;5063189;28;20037;-66
2022/01/02 02:06:11;;;;;;;3.03;0.80;;;;;;;17.85;36.42;98505.56;5067496;28;20483;-67
2022/01/02 02:08:36;;;;;;;2.20;0.70;;;;;;;17.89;35.85;98505.97;5070223;28;20033;-67
2022/01/02 02:11:03;;;;;;;2.00;0.85;;;;;;;17.92;35.77;98500.25;5069413;28;20123;-67
2022/01/02 02:13:29;;;;;;;1.25;0.75;;;;;;;17.95;35.97;98509.72;5061758;28;20511;-67
2022/01/02 02:15:56;;;;;;;1.38;0.80;;;;;;;17.96;35.76;98509.56;5071458;28;20067;-67
2022/01/02 02:18:21;;;;;;;1.20;0.90;;;;;;;17.96;36.03;98520.25;5071168;28;20053;-66
2022/01/02 02:20:47;;;;;;;2.63;0.65;;;;;;;17.97;36.23;98516.59;5072015;28;20052;-67
2022/01/02 02:23:14;;;;;;;0.88;0.57;;;;;;;17.99;35.85;98521.75;5063953;28;20037;-68
2022/01/02 02:25:39;;;;;;;0.82;0.57;;;;;;;17.96;36.18;98522.94;5066864;28;20028;-65
2022/01/02 02:28:16;;;;;;;1.35;0.85;;;;;;;17.97;35.61;98535.34;5070410;28;20040;-66
2022/01/02 02:30:44;;;;;;;1.15;0.70;;;;;;;17.96;35.77;98528.28;5071962;28;20082;-66
2022/01/02 02:33:11;;;;;;;2.80;0.60;;;;;;;17.96;35.49;98527.44;5061861;28;20081;-65
2022/01/02 02:35:38;;;;;;;2.00;0.90;;;;;;;17.96;35.43;98527.44;5064331;28;20101;-66
2022/01/02 02:38:07;;;;;;;0.90;0.60;;;;;;;17.93;35.54;98526.00;5067204;28;20424;-66
2022/01/02 02:40:34;;;;;;;1.50;0.70;;;;;;;17.92;36.31;98536.91;5072021;28;20028;-66
2022/01/02 02:43:09;;;;;;;0.73;0.50;;;;;;;17.90;36.08;98537.06;5072838;28;20035;-66
2022/01/02 02:51:09;;;;;;;1.55;0.70;;;;;;;17.87;36.23;98540.13;5055596;28;20067;-69
2022/01/02 02:53:42;;;;;;;3.35;1.10;;;;;;;17.87;35.87;98547.34;5067436;28;20400;-66
2022/01/02 02:56:29;;;;;;;1.27;0.70;;;;;;;17.87;35.79;98555.38;5074507;28;20040;-66
2022/01/02 02:58:57;;;;;;;1.20;0.80;;;;;;;17.84;35.99;98561.94;5071071;28;20047;-66
2022/01/02 03:01:27;;;;;;;1.77;0.77;;;;;;;17.83;35.73;98568.31;5057408;28;20040;-65
2022/01/02 03:03:53;;;;;;;0.65;0.57;;;;;;;17.81;36.00;98565.81;5074397;28;20109;-65
2022/01/02 03:06:19;;;;;;;1.25;0.60;;;;;;;17.81;36.11;98573.03;5074407;28;20040;-65
2022/01/02 03:08:46;;;;;;;1.65;0.90;;;;;;;17.81;36.39;98576.53;5055360;28;20411;-67
2022/01/02 03:11:17;;;;;;;3.80;0.77;;;;;;;17.80;36.06;98571.38;5054696;28;20393;-66
2022/01/02 03:13:43;;;;;;;;;;;;;;;17.71;36.63;98588.59;5059940;28;20031;-65
2022/01/02 03:16:09;;;;;;;1.38;0.60;;;;;;;17.71;36.34;98592.06;5073361;28;20371;-65
2022/01/02 03:18:36;;;;;;;1.10;0.90;;;;;;;17.70;36.34;98585.06;5063150;28;20049;-66
2022/01/02 03:21:02;;;;;;;1.83;0.85;;;;;;;17.74;36.27;98612.25;5054440;28;20106;-65
2022/01/02 03:23:27;;;;;;;1.08;0.65;;;;;;;17.73;36.26;98599.91;5054416;28;20029;-65
2022/01/02 03:25:56;;;;;;;1.13;0.75;;;;;;;17.73;36.22;98615.94;5064583;28;20052;-65
2022/01/02 03:28:22;;;;;;;1.23;0.80;;;;;;;17.72;35.86;98600.94;5063463;28;20036;-66
2022/01/02 03:30:47;;;;;;;0.90;0.63;;;;;;;17.72;36.32;98612.47;5054452;28;20041;-64
2022/01/02 03:33:13;;;;;;;0.77;0.40;;;;;;;17.67;36.20;98613.03;5062684;28;20132;-65
2022/01/02 03:35:39;;;;;;;0.90;0.90;;;;;;;17.68;35.68;98620.03;5068411;28;20086;-64
2022/01/02 03:38:06;;;;;;;0.88;0.60;;;;;;;17.69;36.09;98620.84;5073353;28;20539;-65
2022/01/02 03:40:31;;;;;;;1.67;0.77;;;;;;;17.67;35.77;98634.44;5059587;28;20044;-65
2022/01/02 03:42:57;;;;;;;0.60;0.60;;;;;;;17.67;35.73;98634.44;5072074;28;20463;-65
2022/01/02 03:45:23;;;;;;;1.63;0.80;;;;;;;17.67;36.04;98638.94;5074253;28;20463;-65
2022/01/02 03:47:49;;;;;;;0.88;0.60;;;;;;;17.65;36.51;98640.97;5072694;28;20127;-63
2022/01/02 03:50:15;;;;;;;0.60;0.55;;;;;;;17.63;36.64;98641.16;5056191;28;20037;-64
2022/01/02 03:52:40;;;;;;;5.78;0.80;;;;;;;17.65;36.97;98635.63;5056874;28;20037;-65
2022/01/02 03:55:07;;;;;;;4.57;0.70;;;;;;;17.66;36.60;98631.94;5073758;28;20040;-64
2022/01/02 03:57:33;;;;;;;1.15;0.50;;;;;;;17.64;36.15;98634.81;5073592;28;20047;-65
2022/01/02 03:59:58;;;;;;;1.20;0.80;;;;;;;17.63;35.91;98637.69;5072051;28;20032;-65
2022/01/02 04:02:24;;;;;;;0.93;0.60;;;;;;;17.61;35.76;98639.72;5073366;28;20028;-64
2022/01/02 04:04:49;;;;;;;1.02;0.70;;;;;;;17.63;35.63;98638.50;5073986;28;20029;-65
2022/01/02 04:07:15;;;;;;;1.08;0.80;;;;;;;17.62;35.67;98636.84;5073082;28;20064;-65
2022/01/02 04:09:41;;;;;;;1.10;0.60;;;;;;;17.61;36.00;98640.53;5073432;28;20476;-65
2022/01/02 04:12:06;;;;;;;2.28;0.50;;;;;;;17.59;35.87;98631.84;5073394;28;20032;-65
2022/01/02 04:14:32;;;;;;;1.90;1.00;;;;;;;17.58;35.73;98642.75;5072277;28;20028;-65
2022/01/02 04:16:57;;;;;;;0.95;0.55;;;;;;;17.58;35.63;98648.91;5072561;28;20063;-65
2022/01/02 04:19:23;;;;;;;2.67;0.82;;;;;;;17.58;35.39;98662.28;5073540;28;20043;-65
2022/01/02 04:21:49;;;;;;;2.25;0.70;;;;;;;17.56;35.98;98661.69;5073053;28;20119;-65
2022/01/02 04:24:14;;;;;;;0.93;0.55;;;;;;;17.54;35.53;98663.72;5072478;28;20028;-65
2022/01/02 04:26:40;;;;;;;0.65;0.40;;;;;;;17.53;35.33;98670.88;5053341;28;20036;-65
2022/01/02 04:29:05;;;;;;;2.15;0.70;;;;;;;17.51;35.75;98672.09;5053169;28;20036;-65
2022/01/02 04:31:31;;;;;;;1.45;0.80;;;;;;;17.51;35.65;98672.91;5053559;28;20044;-64
2022/01/02 04:33:57;;;;;;;1.88;0.50;;;;;;;17.50;35.38;98678.47;5071538;28;20037;-65
2022/01/02 04:36:22;;;;;;;0.57;0.38;;;;;;;17.50;35.14;98684.63;5072322;28;20072;-65
2022/01/02 04:38:48;;;;;;;2.03;0.68;;;;;;;17.48;35.36;98677.81;5072551;28;20488;-65
2022/01/02 04:41:14;;;;;;;2.08;0.52;;;;;;;17.49;35.07;98682.16;5061918;28;20068;-65
2022/01/02 04:43:39;;;;;;;0.70;0.43;;;;;;;17.47;35.38;98690.38;5062112;28;20036;-65
2022/01/02 04:46:05;;;;;;;0.88;0.60;;;;;;;17.46;35.08;98686.03;5053046;28;20048;-65
2022/01/02 04:48:31;;;;;;;1.75;0.68;;;;;;;17.44;35.48;98681.88;5053068;28;20029;-65
2022/01/02 04:50:56;;;;;;;0.55;0.55;;;;;;;17.44;35.46;98676.53;5053042;28;20427;-65
2022/01/02 04:53:22;;;;;;;2.40;0.75;;;;;;;17.43;35.23;98675.72;5062723;28;20466;-65
2022/01/02 04:55:49;;;;;;;1.60;0.75;;;;;;;17.44;35.17;98681.88;5072016;28;20064;-65
2022/01/02 04:58:15;;;;;;;2.17;0.77;;;;;;;17.41;35.20;98667.03;5072856;28;20029;-65
2022/01/02 05:00:41;;;;;;;1.92;0.63;;;;;;;17.41;35.36;98677.72;5072851;28;20373;-65
2022/01/02 05:03:06;;;;;;;1.05;0.50;;;;;;;17.40;35.35;98668.06;5067633;28;20032;-64
2022/01/02 05:05:32;;;;;;;1.55;0.50;;;;;;;17.38;35.08;98672.75;5052473;28;20033;-65
2022/01/02 05:07:57;;;;;;;1.10;0.55;;;;;;;17.36;35.44;98683.66;5052984;28;20131;-66
2022/01/02 05:10:23;;;;;;;0.55;0.40;;;;;;;17.34;35.41;98685.69;5067507;28;20053;-65
2022/01/02 05:12:48;;;;;;;1.15;0.55;;;;;;;17.35;35.47;98687.34;5072179;28;20094;-65
2022/01/02 05:15:14;;;;;;;1.08;0.60;;;;;;;17.33;35.67;98678.66;5072111;28;20547;-65
2022/01/02 05:17:39;;;;;;;1.70;0.77;;;;;;;17.34;35.46;98688.34;5059513;28;20060;-65
2022/01/02 05:20:06;;;;;;;1.10;0.70;;;;;;;17.35;35.65;98691.88;5052655;28;20054;-65
2022/01/02 05:22:31;;;;;;;2.13;0.70;;;;;;;17.35;35.32;98705.25;5062600;28;20418;-65
2022/01/02 05:24:57;;;;;;;1.88;0.60;;;;;;;17.34;35.16;98687.53;5060349;28;20024;-65
2022/01/02 05:27:22;;;;;;;1.98;0.60;;;;;;;17.33;35.51;98683.19;5053546;28;20087;-65
2022/01/02 05:29:48;;;;;;;1.60;0.70;;;;;;;17.34;35.11;98692.88;5052423;28;20029;-65
2022/01/02 05:32:14;;;;;;;0.85;0.40;;;;;;;17.33;35.14;98701.91;5052041;28;20047;-66
2022/01/02 05:34:39;;;;;;;1.42;0.52;;;;;;;17.33;35.45;98717.97;5052180;28;20043;-65
2022/01/02 05:37:05;;;;;;;0.77;0.55;;;;;;;17.31;35.10;98718.13;5059734;28;20032;-66
2022/01/02 05:39:30;;;;;;;1.38;0.70;;;;;;;17.32;34.98;98721.66;5055214;28;20070;-66
2022/01/02 05:41:56;;;;;;;3.75;0.68;;;;;;;17.31;34.85;98726.16;5071839;28;20028;-65
2022/01/02 05:44:22;;;;;;;0.52;0.38;;;;;;;17.29;34.63;98722.00;5071814;28;20032;-65
2022/01/02 05:46:47;;;;;;;1.25;0.70;;;;;;;17.27;35.00;98727.56;5072075;28;20576;-66
2022/01/02 05:49:13;;;;;;;1.42;0.77;;;;;;;17.29;34.78;98732.69;5072359;28;20090;-66
2022/01/02 05:51:40;;;;;;;1.88;0.55;;;;;;;17.29;35.07;98746.88;5072203;28;20407;-66
2022/01/02 05:54:06;;;;;;;1.20;0.82;;;;;;;17.29;34.79;98759.44;5054708;28;20083;-66
2022/01/02 05:56:32;;;;;;;2.47;0.80;;;;;;;17.28;35.00;98763.13;5052149;28;20496;-65
2022/01/02 05:58:58;;;;;;;1.13;0.55;;;;;;;17.27;35.31;98764.13;5070439;28;20067;-66
2022/01/02 06:01:23;;;;;;;3.00;0.43;;;;;;;17.29;35.84;98770.94;5071591;28;20129;-65
2022/01/02 06:03:49;;;;;;;1.10;0.60;;;;;;;17.29;35.26;98762.09;5061628;28;20040;-65
2022/01/02 06:06:14;;;;;;;0.82;0.50;;;;;;;17.29;34.83;98757.56;5071796;28;20044;-66
2022/01/02 06:08:40;;;;;;;1.30;0.50;;;;;;;17.29;35.03;98759.44;5071409;28;20040;-65
2022/01/02 06:11:06;;;;;;;1.75;0.68;;;;;;;17.26;35.33;98763.31;5075386;28;20082;-65
2022/01/02 06:13:31;;;;;;;1.40;0.85;;;;;;;17.23;35.26;98767.16;5076267;28;20571;-65
2022/01/02 06:15:57;;;;;;;0.95;0.60;;;;;;;17.24;34.98;98768.81;5075904;28;20033;-65
2022/01/02 06:18:22;;;;;;;1.42;0.70;;;;;;;17.27;35.53;98780.19;5074940;28;20048;-65
2022/01/02 06:20:48;;;;;;;0.82;0.60;;;;;;;17.25;34.66;98761.66;5075437;28;20461;-65
2022/01/02 06:23:15;;;;;;;1.13;0.40;;;;;;;17.24;35.30;98773.34;5075479;28;20407;-65
2022/01/02 06:25:42;;;;;;;1.48;0.57;;;;;;;17.24;34.93;98784.06;5062407;28;20033;-65
2022/01/02 06:28:07;;;;;;;0.55;0.52;;;;;;;17.24;34.52;98778.72;5067442;28;20755;-65
2022/01/02 06:30:32;;;;;;;2.20;0.80;;;;;;;17.24;34.34;98765.34;5075340;28;20044;-65
2022/01/02 06:32:58;;;;;;;1.30;0.68;;;;;;;17.23;35.07;98780.53;5075295;28;20035;-66
2022/01/02 06:35:26;;;;;;;1.02;0.63;;;;;;;17.25;34.81;98780.38;5075315;28;20028;-65
2022/01/02 06:37:52;;;;;;;1.10;0.52;;;;;;;17.25;34.85;98783.03;5071065;28;20457;-64
2022/01/02 06:40:19;;;;;;;1.02;0.68;;;;;;;17.24;35.22;98786.72;5075426;28;20047;-65
2022/01/02 06:42:45;;;;;;;1.63;0.50;;;;;;;17.23;34.96;98777.84;5075547;28;20430;-66
2022/01/02 06:45:11;;;;;;;0.98;0.65;;;;;;;17.22;35.11;98786.06;5075009;28;20082;-66
2022/01/02 06:47:36;;;;;;;4.00;0.77;;;;;;;17.23;35.84;98791.22;5074683;28;20049;-65
2022/01/02 06:50:03;;;;;;;0.82;0.63;;;;;;;17.23;35.56;98785.88;5074750;28;20035;-65
2022/01/02 06:52:29;;;;;;;0.73;0.50;;;;;;;17.22;35.54;98786.06;5074503;28;20046;-65
2022/01/02 06:54:54;;;;;;;2.17;0.60;;;;;;;17.20;34.83;98783.59;5075136;28;20485;-66
2022/01/02 06:57:21;;;;;;;1.42;0.80;;;;;;;17.23;34.96;98788.56;5068424;28;20402;-66
2022/01/02 06:59:48;;;;;;;1.80;0.70;;;;;;;17.23;35.10;98782.38;5055077;28;20407;-65
2022/01/02 07:02:14;;;;;;;1.23;0.63;;;;;;;17.24;35.06;98784.88;5054862;28;20085;-65
2022/01/02 07:04:40;;;;;;;1.00;0.50;;;;;;;17.23;34.75;98791.22;5054991;28;20381;-65
2022/01/02 07:07:05;;;;;;;1.38;0.60;;;;;;;17.25;34.63;98793.75;5054224;28;20052;-64
2022/01/02 07:09:32;;;;;;;0.95;0.50;;;;;;;17.26;34.70;98792.72;5074601;28;20036;-65
2022/01/02 07:11:58;;;;;;;1.38;0.63;;;;;;;17.27;34.29;98794.38;5074315;28;20033;-65
2022/01/02 07:14:26;;;;;;;1.50;0.68;;;;;;;17.24;34.94;98800.09;5068775;28;20093;-64
2022/01/02 07:16:55;;;;;;;0.90;0.50;;;;;;;17.27;34.96;98809.59;5073892;28;20057;-66
2022/01/02 07:19:21;;;;;;;0.85;0.60;;;;;;;17.24;34.64;98808.94;5074218;28;20429;-64
2022/01/02 07:21:50;;;;;;;0.95;0.60;;;;;;;17.27;34.40;98820.28;5073093;28;20040;-65
2022/01/02 07:24:16;;;;;;;0.60;0.45;;;;;;;17.27;34.31;98821.13;5074438;28;20059;-66
2022/01/02 07:26:42;;;;;;;0.82;0.63;;;;;;;17.25;34.57;98812.44;5073284;28;20492;-63
2022/01/02 07:29:08;;;;;;;1.90;0.70;;;;;;;17.28;34.46;98812.06;5074239;28;20032;-63
2022/01/02 07:31:33;;;;;;;1.33;0.60;;;;;;;17.27;34.17;98813.09;5074049;28;20126;-66
2022/01/02 07:33:59;;;;;;;0.45;0.40;;;;;;;17.28;34.29;98803.22;5074298;28;20043;-65
2022/01/02 07:36:24;;;;;;;0.80;0.40;;;;;;;17.29;34.03;98813.72;5073384;28;20057;-67
2022/01/02 07:38:50;;;;;;;1.02;0.47;;;;;;;17.25;34.18;98807.09;5074322;28;20044;-67
2022/01/02 07:41:16;;;;;;;3.00;0.52;;;;;;;17.28;33.88;98821.94;5073942;28;20028;-67
2022/01/02 07:43:41;;;;;;;1.25;0.75;;;;;;;17.29;33.56;98824.41;5074173;28;20036;-67
2022/01/02 07:46:07;;;;;;;2.20;0.70;;;;;;;17.30;33.76;98819.91;5074093;28;20044;-67
2022/01/02 07:48:32;;;;;;;1.33;0.60;;;;;;;17.29;33.90;98821.75;5073519;28;20040;-66
2022/01/02 07:50:58;;;;;;;2.08;1.00;;;;;;;17.31;33.96;98837.63;5074063;28;20044;-65
2022/01/02 07:53:24;;;;;;;2.03;0.80;;;;;;;17.33;33.76;98835.59;5072831;28;20053;-66
2022/01/02 07:55:50;;;;;;;2.10;0.80;;;;;;;17.31;33.20;98838.44;5073658;28;20037;-65
2022/01/02 07:58:15;;;;;;;0.90;0.38;;;;;;;17.35;33.52;98841.59;5073639;28;20502;-65
2022/01/02 08:00:42;;;;;;;2.45;0.63;;;;;;;17.36;33.11;98846.75;5073891;28;20043;-65
2022/01/02 08:03:08;;;;;;;1.35;0.82;;;;;;;17.35;34.04;98847.78;5070368;28;20487;-65
2022/01/02 08:05:33;;;;;;;1.00;0.60;;;;;;;17.36;33.87;98841.41;5053369;28;20064;-65
2022/01/02 08:07:59;;;;;;;0.93;0.60;;;;;;;17.37;33.58;98843.06;5067552;28;20040;-65
2022/01/02 08:10:26;;;;;;;0.95;0.60;;;;;;;17.39;33.43;98849.06;5074089;28;20509;-64
2022/01/02 08:12:52;;;;;;;0.85;0.60;;;;;;;17.40;33.32;98849.91;5073598;28;20047;-64
2022/01/02 08:15:18;;;;;;;1.30;0.65;;;;;;;17.39;33.31;98848.22;5072420;28;20036;-64
2022/01/02 08:17:43;;;;;;;0.88;0.70;;;;;;;17.41;33.04;98864.09;5072480;28;20487;-65
2022/01/02 08:20:09;;;;;;;1.23;0.70;;;;;;;17.38;33.85;98859.94;5073580;28;20040;-66
2022/01/02 08:22:35;;;;;;;1.23;0.57;;;;;;;17.43;33.25;98859.38;5073364;28;20127;-65
2022/01/02 08:25:02;;;;;;;1.67;0.70;;;;;;;17.38;33.50;98858.09;5072888;28;20086;-66
2022/01/02 08:27:28;;;;;;;1.30;0.80;;;;;;;17.41;33.59;98864.09;5072471;28;20127;-66
2022/01/02 08:29:53;;;;;;;1.08;0.50;;;;;;;17.40;33.24;98852.56;5072678;28;20522;-66
2022/01/02 08:32:19;;;;;;;2.08;0.95;;;;;;;17.42;32.86;98855.06;5071566;28;20037;-66
2022/01/02 08:34:45;;;;;;;3.00;0.85;;;;;;;17.41;33.36;98872.13;5073283;28;20025;-64
2022/01/02 08:37:11;;;;;;;1.23;0.65;;;;;;;17.42;33.56;98868.44;5072600;28;20400;-64
2022/01/02 08:39:37;;;;;;;0.82;0.55;;;;;;;17.42;33.14;98873.78;5072935;28;20395;-65
2022/01/02 08:42:03;;;;;;;1.50;0.77;;;;;;;17.42;33.01;98865.78;5072568;28;20040;-65
2022/01/02 08:44:28;;;;;;;1.25;0.70;;;;;;;17.43;33.08;98876.28;5073324;28;20127;-65
2022/01/02 08:46:54;;;;;;;1.45;0.63;;;;;;;17.47;33.43;98863.38;5073040;28;20127;-65
2022/01/02 08:49:19;;;;;;;0.95;0.75;;;;;;;17.46;32.81;98862.53;5073066;28;20078;-65
2022/01/02 08:51:45;;;;;;;0.73;0.60;;;;;;;17.47;32.52;98880.25;5072428;28;20483;-66
2022/01/02 08:54:11;;;;;;;1.85;0.80;;;;;;;17.48;32.54;98868.56;5056495;28;20082;-65
2022/01/02 08:56:36;;;;;;;0.98;0.50;;;;;;;17.50;32.89;98869.16;5073287;28;20430;-65
2022/01/02 08:59:02;;;;;;;2.05;0.88;;;;;;;17.50;33.10;98868.34;5072879;28;20165;-65
2022/01/02 09:01:28;;;;;;;1.92;0.80;;;;;;;17.52;33.14;98866.34;5072375;28;20462;-65
2022/01/02 09:03:53;;;;;;;3.67;0.60;;;;;;;17.51;33.38;98862.81;5072544;28;20369;-64
2022/01/02 09:06:19;;;;;;;3.60;1.13;;;;;;;17.52;33.14;98861.81;5072432;28;20044;-65
2022/01/02 09:08:44;;;;;;;1.20;0.68;;;;;;;17.54;33.26;98859.78;5072752;28;20532;-65
2022/01/02 09:11:10;;;;;;;0.85;0.60;;;;;;;17.54;33.45;98858.97;5072644;28;20032;-67
2022/01/02 09:13:35;;;;;;;1.13;0.55;;;;;;;17.55;33.36;98857.94;5072063;28;20058;-64
2022/01/02 09:16:02;;;;;;;1.75;0.80;;;;;;;17.53;32.95;98858.13;5072165;28;20534;-68
2022/01/02 09:18:27;;;;;;;1.42;0.70;;;;;;;17.55;33.18;98860.63;5072012;28;20056;-67
2022/01/02 09:20:53;;;;;;;1.17;0.60;;;;;;;17.57;32.42;98853.25;5072346;28;20052;-65
2022/01/02 09:23:18;;;;;;;1.48;0.70;;;;;;;17.58;32.36;98859.41;5071864;28;20548;-65
2022/01/02 09:25:44;;;;;;;1.02;0.50;;;;;;;17.59;32.32;98850.38;5058588;28;20033;-65
2022/01/02 09:28:10;;;;;;;0.88;0.73;;;;;;;17.59;32.29;98845.03;5052135;28;20044;-65
2022/01/02 09:30:36;;;;;;;1.33;0.70;;;;;;;17.59;32.53;98839.69;5052451;28;20041;-67
2022/01/02 09:33:02;;;;;;;1.95;0.80;;;;;;;17.60;33.07;98844.03;5065337;28;20036;-66
2022/01/02 09:35:29;;;;;;;0.85;0.60;;;;;;;17.59;32.40;98843.16;5071990;28;20032;-65
2022/01/02 09:37:54;;;;;;;1.88;0.80;;;;;;;17.59;32.11;98840.50;5071951;28;20052;-65
2022/01/02 09:40:21;;;;;;;1.08;0.60;;;;;;;17.59;31.88;98845.03;5072396;28;20037;-65
2022/01/02 09:42:46;;;;;;;2.28;0.90;;;;;;;17.58;32.02;98840.69;5073998;28;20036;-64
2022/01/02 09:45:13;;;;;;;1.40;0.70;;;;;;;17.56;32.28;98829.34;5072296;28;20342;-65
2022/01/02 09:47:38;;;;;;;1.80;0.80;;;;;;;17.58;32.19;98835.34;5063258;28;20068;-65
2022/01/02 09:50:06;;;;;;;1.60;0.90;;;;;;;17.59;32.39;98829.81;5076162;28;20463;-65
2022/01/02 09:52:32;;;;;;;1.20;0.60;;;;;;;17.59;32.09;98834.34;5075811;28;20033;-66
2022/01/02 09:54:58;;;;;;;1.52;0.82;;;;;;;17.58;32.08;98825.47;5076012;28;20543;-66
2022/01/02 09:57:23;;;;;;;1.00;0.55;;;;;;;17.58;31.95;98838.84;5070473;28;20032;-65
2022/01/02 09:59:48;;;;;;;1.17;0.50;;;;;;;17.58;31.91;98849.53;5056254;28;20040;-65
2022/01/02 10:02:14;;;;;;;1.17;0.70;;;;;;;17.57;31.70;98850.56;5065285;28;20407;-66
2022/01/02 10:04:42;;;;;;;1.20;0.90;;;;;;;17.54;31.58;98854.44;5076125;28;20036;-66
2022/01/02 10:07:26;;;;;;;1.63;0.50;;;;;;;17.53;32.21;98846.59;5075444;28;20036;-63
2022/01/02 10:09:52;;;;;;;2.08;0.82;;;;;;;17.53;32.45;98862.66;5075326;28;20036;-65
2022/01/02 10:12:27;;;;;;;1.05;0.68;;;;;;;17.55;32.16;98868.66;5075579;28;20078;-64
2022/01/02 10:15:23;;;;;;;1.42;0.90;;;;;;;17.53;32.56;98868.00;5062720;28;20064;-66
2022/01/02 10:17:56;;;;;;;1.65;0.70;;;;;;;17.51;32.38;98865.50;5062793;28;20052;-66
2022/01/02 10:20:30;;;;;;;1.08;0.68;;;;;;;17.52;32.48;98879.72;5075533;28;20063;-65
2022/01/02 10:23:13;;;;;;;1.13;0.60;;;;;;;17.51;32.05;98886.06;5075397;28;20517;-65
2022/01/02 10:25:55;;;;;;;1.65;0.95;;;;;;;17.49;32.03;98883.59;5062911;28;20028;-65
2022/01/02 10:28:31;;;;;;;0.85;0.50;;;;;;;17.51;32.12;98883.38;5064544;28;20041;-64
2022/01/02 10:31:09;;;;;;;1.77;0.70;;;;;;;17.51;31.98;98883.38;5075012;28;20047;-66
2022/01/02 10:33:50;;;;;;;1.30;0.70;;;;;;;17.52;31.81;98874.34;5075023;28;20040;-65
2022/01/02 10:36:25;;;;;;;1.52;0.73;;;;;;;17.51;32.22;98886.06;5074827;28;20040;-64
2022/01/02 10:39:15;;;;;;;0.98;0.52;;;;;;;17.51;32.38;98894.91;5075424;28;20373;-66
2022/01/02 10:41:51;;;;;;;2.30;0.80;;;;;;;17.51;31.91;98892.22;5073993;28;20411;-66
2022/01/02 10:44:29;;;;;;;0.95;0.47;;;;;;;17.49;31.55;98888.94;5059557;28;20037;-65
2022/01/02 10:47:13;;;;;;;1.60;0.70;;;;;;;17.49;31.39;98893.44;5074157;28;20040;-65
2022/01/02 10:49:59;;;;;;;1.17;0.90;;;;;;;17.49;31.65;98898.78;5074580;28;20123;-64
2022/01/02 10:52:30;;;;;;;1.50;0.60;;;;;;;17.49;31.58;98898.78;5074299;28;20036;-65
2022/01/02 10:54:58;;;;;;;1.73;1.05;;;;;;;17.49;31.60;98896.09;5074228;28;20099;-64
2022/01/02 10:57:24;;;;;;;2.28;1.15;;;;;;;17.49;31.69;98901.47;5074543;28;20032;-65
2022/01/02 10:59:55;;;;;;;1.83;0.93;;;;;;;17.50;31.50;98911.97;5074779;28;20146;-65
2022/01/02 11:02:23;;;;;;;2.25;0.80;;;;;;;17.49;31.23;98910.34;5074562;28;20452;-65
2022/01/02 11:04:56;;;;;;;0.90;0.63;;;;;;;17.52;31.02;98919.81;5067218;28;20040;-64
2022/01/02 11:07:23;;;;;;;1.20;0.70;;;;;;;17.52;31.04;98919.81;5072968;28;20040;-64
2022/01/02 11:09:54;;;;;;;1.15;0.50;;;;;;;17.52;31.07;98914.47;5074421;28;20147;-64
2022/01/02 11:12:21;;;;;;;1.23;0.65;;;;;;;17.52;31.61;98909.94;5063787;28;20091;-66
2022/01/02 11:14:48;;;;;;;1.00;0.75;;;;;;;17.52;31.48;98909.94;5066723;28;20040;-65
2022/01/02 11:17:15;;;;;;;1.05;0.63;;;;;;;17.51;31.20;98912.81;5074275;28;20053;-65
2022/01/02 11:19:41;;;;;;;0.80;0.52;;;;;;;17.55;31.16;98924.81;5061585;28;20041;-65
2022/01/02 11:22:26;;;;;;;2.15;0.65;;;;;;;17.56;31.47;98905.09;5056414;28;20115;-66
2022/01/02 11:25:33;;;;;;;0.60;0.47;;;;;;;17.57;31.48;98908.56;5074674;28;20028;-65
2022/01/02 11:28:03;;;;;;;1.05;0.60;;;;;;;17.56;31.21;98905.09;5040299;28;20122;-65
2022/01/02 11:30:32;;;;;;;2.25;1.10;;;;;;;17.57;31.04;98896.06;5074089;28;20028;-65
2022/01/02 11:33:02;;;;;;;1.27;0.80;;;;;;;17.60;31.26;98909.03;5073363;28;20032;-65
2022/01/02 11:35:31;;;;;;;0.90;0.60;;;;;;;17.62;31.07;98898.19;5074636;28;20024;-64
2022/01/02 11:38:03;;;;;;;1.55;1.13;;;;;;;17.63;30.72;98899.84;5073874;28;20503;-65
2022/01/02 11:40:49;;;;;;;3.97;0.50;;;;;;;17.61;30.82;98883.13;5073958;28;20119;-64
2022/01/02 11:43:49;;;;;;;1.10;0.50;;;;;;;17.64;30.68;98877.44;5073225;28;20032;-65